Time;durP1;ratioP1;P1;durP2;ratioP2;P2;SDS_P1;SDS_P2;PMS_P1;PMS_P2;Temp;Humidity;BMP_temperature;BMP_pressure;BME280_temperature;BME280_humidity;BME280_pressure;Samples;Min_cycle;Max_cycle;Signal;HPM_P1;HPM_P2
2022/07/05 00:04:28;;;;;;;2.43;2.10;;;;;;;28.19;41.21;100199.34;20202573;28;101880;-76
2022/07/05 00:14:30;;;;;;;5.43;2.43;;;;;;;28.26;42.06;100197.69;20202477;28;100668;-76
2022/07/05 00:24:30;;;;;;;3.95;1.92;;;;;;;28.22;42.86;100210.50;20186442;28;98367;-76
2022/07/05 00:34:31;;;;;;;2.63;2.03;;;;;;;28.26;42.71;100195.03;20199520;28;101655;-76
2022/07/05 00:44:37;;;;;;;5.53;2.00;;;;;;;28.29;42.70;100178.69;20199304;28;98379;-77
2022/07/05 00:54:38;;;;;;;2.95;1.98;;;;;;;28.35;42.55;100171.84;20193886;28;96968;-78
2022/07/05 01:04:38;;;;;;;2.72;1.83;;;;;;;28.25;42.70;100183.53;20195072;28;99372;-78
2022/07/05 01:14:41;;;;;;;3.90;1.50;;;;;;;28.20;42.65;100185.06;20198679;28;98060;-78
2022/07/05 01:24:43;;;;;;;1.60;1.50;;;;;;;28.21;42.63;100192.00;20185820;28;97865;-78
2022/07/05 01:34:44;;;;;;;4.13;1.85;;;;;;;28.21;42.43;100181.38;20188340;28;100555;-77
2022/07/05 01:44:44;;;;;;;3.28;2.10;;;;;;;28.26;42.49;100184.38;20189526;28;98221;-77
2022/07/05 01:54:45;;;;;;;2.22;1.80;;;;;;;28.28;41.81;100177.03;20214522;28;99947;-78
2022/07/05 02:04:45;;;;;;;3.70;1.50;;;;;;;28.25;42.16;100178.19;20202812;28;99176;-78
2022/07/05 02:14:46;;;;;;;3.67;1.70;;;;;;;28.21;42.29;100166.25;20206841;28;98600;-77
2022/07/05 02:24:46;;;;;;;4.30;1.60;;;;;;;28.19;42.35;100173.56;20209706;28;97085;-77
2022/07/05 02:34:47;;;;;;;2.38;1.77;;;;;;;28.14;42.42;100165.25;20198817;28;97997;-77
2022/07/05 02:44:48;;;;;;;4.80;2.88;;;;;;;28.09;42.51;100135.66;20201728;28;98396;-77
2022/07/05 02:54:48;;;;;;;2.45;2.08;;;;;;;28.14;42.01;100141.31;20204252;28;100923;-78
2022/07/05 03:04:49;;;;;;;1.57;1.47;;;;;;;28.13;41.76;100155.59;20188965;28;99939;-77
2022/07/05 03:14:50;;;;;;;3.20;1.80;;;;;;;28.09;41.70;100146.31;20202679;28;99133;-77
2022/07/05 03:24:50;;;;;;;2.43;1.50;;;;;;;28.10;42.03;100151.47;20198806;28;98482;-77
2022/07/05 03:34:51;;;;;;;2.53;2.33;;;;;;;28.08;41.72;100145.47;20193909;28;97346;-78
2022/07/05 03:44:51;;;;;;;3.13;2.57;;;;;;;28.07;42.12;100151.78;20204255;28;101037;-78
2022/07/05 03:54:52;;;;;;;3.33;2.30;;;;;;;28.08;42.11;100164.09;20196953;28;97834;-78
2022/07/05 04:04:52;;;;;;;5.33;2.20;;;;;;;28.04;42.11;100177.88;20189249;28;98135;-78
2022/07/05 04:14:53;;;;;;;3.87;2.70;;;;;;;28.01;41.97;100180.91;20185203;28;97051;-78
2022/07/05 04:35:14;;;;;;;2.38;1.92;;;;;;;27.88;41.67;100176.94;20185897;28;98666;-77
2022/07/05 04:45:15;;;;;;;4.75;3.70;;;;;;;27.87;42.06;100164.63;20184125;28;99279;-77
2022/07/05 04:55:15;;;;;;;5.18;3.55;;;;;;;27.85;42.43;100166.59;20178252;28;98690;-78
2022/07/05 05:05:16;;;;;;;4.55;3.42;;;;;;;27.63;42.55;100170.78;20194524;28;100977;-77
2022/07/05 05:15:16;;;;;;;23.42;14.48;;;;;;;27.50;42.61;100165.13;20201224;28;97837;-77
2022/07/05 05:25:17;;;;;;;10.97;5.10;;;;;;;27.49;42.63;100161.66;20210401;28;98827;-76
2022/07/05 05:35:20;;;;;;;4.13;3.08;;;;;;;27.63;42.68;100155.66;20215899;28;100065;-80
2022/07/05 05:45:21;;;;;;;11.93;4.45;;;;;;;27.60;42.81;100160.47;20206043;28;98638;-76
2022/07/05 05:55:22;;;;;;;;;;;;;;;27.61;42.69;100168.31;20199958;28;101947;-76
2022/07/05 06:05:23;;;;;;;7.93;3.07;;;;;;;27.68;42.91;100170.28;20198412;28;99107;-76
2022/07/05 06:15:23;;;;;;;2.80;1.83;;;;;;;27.57;43.43;100190.06;20184787;28;98733;-75
2022/07/05 06:25:24;;;;;;;6.78;2.20;;;;;;;27.59;42.57;100191.56;20194308;28;97080;-75
2022/07/05 06:35:25;;;;;;;3.10;1.40;;;;;;;27.53;41.89;100188.75;20192251;28;97056;-77
2022/07/05 06:45:26;;;;;;;;;;;;;;;27.47;42.21;100182.25;20219643;28;101679;-76
2022/07/05 06:55:27;;;;;;;7.20;1.90;;;;;;;27.48;41.83;100189.25;20204047;28;97267;-75
2022/07/05 07:05:28;;;;;;;5.28;1.50;;;;;;;27.34;41.36;100177.38;20201597;28;98289;-74
2022/07/05 07:15:29;;;;;;;4.27;1.80;;;;;;;27.40;41.79;100174.06;20192135;28;99547;-74
2022/07/05 07:25:30;;;;;;;4.90;1.60;;;;;;;27.54;41.25;100169.13;20207333;28;99767;-77
2022/07/05 07:35:32;;;;;;;2.15;1.40;;;;;;;27.63;41.48;100176.09;20200459;28;99092;-77
2022/07/05 07:45:33;;;;;;;3.45;1.55;;;;;;;27.74;40.98;100159.78;20200049;28;98500;-77
2022/07/05 07:55:33;;;;;;;1.88;1.50;;;;;;;27.84;40.63;100161.47;20199126;28;97635;-76
2022/07/05 08:05:34;;;;;;;2.30;1.30;;;;;;;27.83;40.87;100147.34;20200870;28;102227;-78
2022/07/05 08:15:34;;;;;;;5.10;1.80;;;;;;;27.83;41.29;100146.50;20216207;28;97770;-76
2022/07/05 08:25:35;;;;;;;4.40;2.00;;;;;;;27.82;42.41;100143.00;20224378;28;100939;-78
2022/07/05 08:35:35;;;;;;;6.47;1.92;;;;;;;27.80;42.54;100148.47;20216104;28;101028;-79
2022/07/05 08:45:37;;;;;;;10.73;1.80;;;;;;;27.86;42.73;100157.63;20210651;28;101310;-78
2022/07/05 08:55:37;;;;;;;6.65;1.85;;;;;;;27.96;41.76;100170.75;20206128;28;97022;-77
2022/07/05 09:05:45;;;;;;;;;;;;;;;27.86;42.30;100157.63;20206514;28;99147;-78
2022/07/05 09:15:46;;;;;;;3.90;2.00;;;;;;;27.91;41.76;100163.28;20206443;28;98359;-79
2022/07/05 09:25:47;;;;;;;7.40;2.60;;;;;;;27.78;42.23;100174.44;20210978;28;97700;-81
2022/07/05 09:35:57;;;;;;;1.98;1.33;;;;;;;27.59;43.47;100172.13;20199200;28;97164;-76
2022/07/05 09:46:03;;;;;;;5.28;1.77;;;;;;;27.78;43.80;100170.94;20231610;28;97466;-77
2022/07/05 09:56:04;;;;;;;5.13;1.35;;;;;;;27.51;44.92;100169.47;20224400;28;98154;-77
2022/07/05 10:06:11;;;;;;;3.92;1.70;;;;;;;27.15;45.94;100203.28;20211530;28;97546;-77
2022/07/05 10:16:11;;;;;;;5.97;2.03;;;;;;;26.76;46.28;100264.13;20224053;28;97764;-77
2022/07/05 10:26:13;;;;;;;3.43;1.70;;;;;;;26.94;46.21;100194.91;20205232;28;97972;-79
2022/07/05 10:36:14;;;;;;;3.25;2.00;;;;;;;26.45;48.70;100217.63;20224277;28;97645;-79
2022/07/05 10:46:32;;;;;;;5.78;2.13;;;;;;;26.75;50.27;100255.28;20213968;28;97089;-78
2022/07/05 10:56:32;;;;;;;5.82;2.17;;;;;;;26.83;51.29;100297.84;20218566;28;97025;-79
2022/07/05 11:06:39;;;;;;;4.10;1.90;;;;;;;27.00;51.11;100296.09;20219758;28;97744;-78
2022/07/05 11:16:39;;;;;;;3.47;1.63;;;;;;;27.32;50.44;100296.38;20216870;28;97847;-77
2022/07/05 11:26:39;;;;;;;3.28;1.45;;;;;;;27.47;49.16;100316.03;20216555;28;98982;-77
2022/07/05 11:36:40;;;;;;;1.88;1.20;;;;;;;27.64;47.87;100305.44;20205069;28;98088;-78
2022/07/05 11:46:43;;;;;;;3.85;1.80;;;;;;;27.83;47.70;100276.88;20201997;28;98657;-77
2022/07/05 11:56:43;;;;;;;4.50;1.88;;;;;;;27.80;48.85;100267.38;20218573;28;96922;-78
2022/07/05 12:06:44;;;;;;;3.30;1.47;;;;;;;27.77;48.70;100236.63;20220317;28;97868;-78
2022/07/05 12:16:44;;;;;;;3.40;1.67;;;;;;;26.94;50.83;100235.63;20211632;28;102367;-77
2022/07/05 12:26:45;;;;;;;2.35;1.70;;;;;;;26.58;52.47;100219.00;20206714;28;97876;-77
2022/07/05 12:36:46;;;;;;;2.95;1.70;;;;;;;26.46;53.42;100243.16;20196274;28;98838;-77
2022/07/05 12:46:51;;;;;;;2.50;2.22;;;;;;;26.36;53.34;100227.34;20203630;28;97216;-77
2022/07/05 13:07:24;;;;;;;4.50;3.17;;;;;;;26.07;54.12;100211.75;20201739;28;101229;-77
2022/07/05 13:17:25;;;;;;;1.80;1.70;;;;;;;25.97;53.94;100193.22;20204268;28;98130;-75
2022/07/05 13:27:25;;;;;;;1.90;1.45;;;;;;;25.95;54.28;100181.97;20195803;28;99371;-75
2022/07/05 13:37:26;;;;;;;2.28;1.52;;;;;;;25.93;53.54;100175.13;20195555;28;98206;-76
2022/07/05 13:47:26;;;;;;;4.15;2.50;;;;;;;25.94;54.76;100179.44;20205593;28;99013;-77
2022/07/05 13:57:27;;;;;;;2.92;1.52;;;;;;;25.77;53.52;100176.69;20211808;28;98547;-77
2022/07/05 14:07:28;;;;;;;3.90;1.90;;;;;;;25.74;55.12;100163.72;20209325;28;98117;-77
2022/07/05 14:17:28;;;;;;;2.13;1.60;;;;;;;25.90;53.57;100149.75;20202277;28;99440;-76
2022/07/05 14:27:29;;;;;;;1.60;1.50;;;;;;;26.16;53.47;100138.34;20201410;28;100254;-77
2022/07/05 14:37:29;;;;;;;4.35;1.75;;;;;;;26.62;52.16;100119.44;20196938;28;97117;-78
2022/07/05 14:47:30;;;;;;;5.00;1.48;;;;;;;27.11;52.12;100103.63;20199341;28;98675;-79
2022/07/05 14:57:30;;;;;;;1.85;1.20;;;;;;;27.38;50.46;100106.09;20205181;28;98076;-78
2022/07/05 15:07:30;;;;;;;1.45;1.35;;;;;;;27.55;49.70;100114.94;20205104;28;98638;-79
2022/07/05 15:17:33;;;;;;;3.28;1.40;;;;;;;27.66;49.38;100111.94;20226431;28;100737;-79
2022/07/05 15:27:33;;;;;;;1.27;1.17;;;;;;;27.74;49.01;100108.44;20212444;28;97595;-78
2022/07/05 15:37:34;;;;;;;1.40;1.30;;;;;;;27.79;48.69;100101.63;20200937;28;97278;-78
2022/07/05 15:47:36;;;;;;;1.93;1.23;;;;;;;27.87;48.81;100087.47;20202249;28;99600;-76
2022/07/05 15:57:37;;;;;;;1.35;1.20;;;;;;;27.94;48.38;100082.25;20231322;28;97592;-77
2022/07/05 16:07:37;;;;;;;;;;;;;;;28.00;47.80;100067.47;20209188;28;99232;-77
2022/07/05 16:17:38;;;;;;;2.83;1.38;;;;;;;28.05;47.72;100079.28;20204176;28;97236;-77
2022/07/05 16:27:39;;;;;;;1.30;1.20;;;;;;;28.09;47.79;100061.97;20206379;28;97135;-75
2022/07/05 16:37:40;;;;;;;1.15;1.00;;;;;;;28.13;47.54;100061.63;20205197;28;97723;-76
2022/07/05 16:47:40;;;;;;;1.00;1.00;;;;;;;28.10;47.34;100062.81;20194388;28;98654;-77
2022/07/05 16:57:41;;;;;;;1.60;1.20;;;;;;;28.06;47.25;100048.16;20197902;28;102861;-77
2022/07/05 17:07:41;;;;;;;1.23;1.13;;;;;;;28.05;47.38;100054.47;20198031;28;98133;-76
2022/07/05 17:17:42;;;;;;;1.17;1.10;;;;;;;28.01;47.51;100064.63;20196620;28;99920;-77
2022/07/05 17:27:42;;;;;;;1.00;1.00;;;;;;;28.00;47.50;100096.72;20217635;28;98201;-76
2022/07/05 17:37:43;;;;;;;4.10;1.25;;;;;;;27.73;46.70;100109.44;20194612;28;97218;-75
2022/07/05 17:47:43;;;;;;;1.70;1.60;;;;;;;26.11;50.13;100120.25;20192783;28;99139;-75
2022/07/05 17:57:43;;;;;;;1.90;1.73;;;;;;;25.46;52.21;100116.13;20196048;28;97195;-75
2022/07/05 18:07:46;;;;;;;2.30;2.20;;;;;;;25.05;53.16;100102.53;20181678;28;97860;-76
2022/07/05 18:17:46;;;;;;;4.95;3.97;;;;;;;24.82;54.52;100105.59;20205155;28;101070;-77
2022/07/05 18:27:47;;;;;;;2.90;2.70;;;;;;;24.59;55.05;100100.69;20192555;28;100275;-77
2022/07/05 18:37:47;;;;;;;3.22;2.90;;;;;;;24.61;54.02;100109.31;20199603;28;97756;-77
2022/07/05 18:47:50;;;;;;;3.83;2.25;;;;;;;24.41;54.62;100095.38;20194412;28;98310;-76
2022/07/05 18:57:50;;;;;;;3.47;2.60;;;;;;;24.21;55.68;100109.66;20202923;28;99078;-78
2022/07/05 19:18:10;;;;;;;4.15;3.00;;;;;;;23.91;56.20;100111.53;20209694;28;98806;-74
2022/07/05 19:28:10;;;;;;;3.03;1.98;;;;;;;23.67;56.61;100118.97;20173140;28;103341;-74
2022/07/05 19:38:11;;;;;;;2.92;2.22;;;;;;;23.66;57.13;100114.63;20177245;28;97838;-75
2022/07/05 19:48:11;;;;;;;4.30;1.63;;;;;;;23.86;56.68;100100.56;20200345;28;97978;-75
2022/07/05 19:58:13;;;;;;;1.80;1.70;;;;;;;23.77;56.63;100091.69;20217190;28;97073;-75
2022/07/05 20:08:13;;;;;;;3.38;2.10;;;;;;;23.50;57.88;100090.63;20206571;28;97665;-74
2022/07/05 20:18:16;;;;;;;5.00;4.07;;;;;;;23.64;57.43;100079.59;20222050;28;97403;-75
2022/07/05 20:28:17;;;;;;;2.55;2.35;;;;;;;23.26;58.66;100085.78;20233955;28;97947;-76
2022/07/05 20:38:17;;;;;;;4.30;2.83;;;;;;;23.19;58.90;100114.53;20209390;28;97359;-76
2022/07/05 20:48:18;;;;;;;4.97;3.03;;;;;;;23.24;59.16;100088.56;20201526;28;97000;-77
2022/07/05 20:58:19;;;;;;;2.83;2.60;;;;;;;23.29;58.49;100094.25;20175683;28;98352;-76
2022/07/05 21:08:19;;;;;;;2.50;2.30;;;;;;;23.33;57.79;100111.47;20164597;28;100468;-76
2022/07/05 21:18:19;;;;;;;4.13;2.47;;;;;;;23.12;58.08;100108.97;20170071;28;98247;-76
2022/07/05 21:28:20;;;;;;;2.40;2.20;;;;;;;23.42;57.01;100115.09;20182120;28;100381;-75
2022/07/05 21:38:21;;;;;;;3.13;2.50;;;;;;;23.40;57.04;100124.13;20164562;28;99142;-75
2022/07/05 21:48:22;;;;;;;2.78;2.58;;;;;;;23.25;56.63;100127.19;20168416;28;101189;-75
2022/07/05 21:58:22;;;;;;;2.67;2.03;;;;;;;23.93;54.74;100107.78;20168842;28;98227;-74
2022/07/05 22:08:23;;;;;;;1.97;1.87;;;;;;;24.35;53.33;100116.28;20183719;28;101491;-75
2022/07/05 22:18:23;;;;;;;4.40;1.98;;;;;;;24.45;52.02;100136.41;20172871;28;98384;-74
2022/07/05 22:28:24;;;;;;;3.15;2.00;;;;;;;24.65;51.41;100132.84;20159999;28;98343;-74
2022/07/05 22:38:24;;;;;;;2.70;2.03;;;;;;;24.69;51.02;100145.66;20165125;28;101842;-75
2022/07/05 22:48:25;;;;;;;2.20;2.00;;;;;;;24.75;50.47;100142.41;20158351;28;97908;-75
2022/07/05 22:58:25;;;;;;;2.92;2.58;;;;;;;24.70;50.22;100134.09;20181850;28;99104;-75
2022/07/05 23:08:26;;;;;;;3.38;2.42;;;;;;;24.74;49.92;100146.06;20171811;28;100648;-75
2022/07/05 23:18:26;;;;;;;5.55;2.65;;;;;;;24.72;49.84;100144.56;20175554;28;102711;-75
2022/07/05 23:28:27;;;;;;;2.78;2.45;;;;;;;24.73;49.34;100132.97;20164627;28;99301;-76
2022/07/05 23:38:27;;;;;;;5.57;2.65;;;;;;;24.71;49.64;100159.59;20172351;28;97130;-75
2022/07/05 23:48:30;;;;;;;2.63;2.40;;;;;;;24.68;49.03;100162.53;20179078;28;98004;-75
2022/07/05 23:58:32;;;;;;;6.13;2.60;;;;;;;24.68;49.07;100167.00;20181260;28;101616;-76
